Flight Track Log - Related Links

Times and Time Zones

All times are in EDT time to prevent confusion due to time zone crossing. See the N934DL flight status page for this flight to view local times or setup timezone preferences in your user account.

Time Position Orientation Groundspeed Altitude Reporting Facility
EDT Latitude Longitude Course Direction KTS MPH feet Rate Location/Type
Wed 06:54:34 PM 40.7833 -73.7833 37° Northeast 232 267 2,500  Level New TRACON
Wed 06:55:34 PM 40.8333 -73.7333 37° Northeast 274 315 4,700 2,700 Climbing New TRACON
Wed 06:56:34 PM 40.9167 -73.6833 24° Northeast 306 352 7,900 2,769 Climbing New TRACON
Wed 06:58:10 PM 41.0069 -73.5486 48° Northeast 317 365 11,900 1,987 Climbing Boston Center
Wed 06:59:11 PM 41.0081 -73.4386 89° East 315 362 13,100 595 Climbing Boston Center
Wed 07:00:11 PM 41.0875 -73.3983 21° North 279 321 13,100 446 Level Boston Center
Wed 07:01:12 PM 41.1603 -73.4244 345° North 275 316 14,000 1,966 Climbing Boston Center
Wed 07:02:10 PM 41.2625 -73.4150 North 323 372 17,000 2,672 Climbing Boston Center
Wed 07:03:11 PM 41.3567 -73.3747 18° North 340 391 19,300 1,791 Climbing Boston Center
Wed 07:04:24 PM 41.4675 -73.3239 19° North 345 397 21,000 1,263 Climbing Boston Center
Wed 07:05:24 PM 41.5472 -73.2278 42° Northeast 357 411 22,100 1,271 Climbing Boston Center
Wed 07:06:22 PM 41.6314 -73.1261 42° Northeast 377 434 23,500 1,400 Climbing Boston Center
Wed 07:07:24 PM 41.7397 -73.1300 358° North 362 417 24,900 1,377 Climbing Boston Center
Wed 07:08:24 PM 41.8481 -73.1481 353° North 370 426 26,300 1,271 Climbing Boston Center
Wed 07:09:22 PM 41.9603 -73.1658 353° North 377 434 27,400 1,160 Climbing Boston Center
Wed 07:10:23 PM 42.0728 -73.1869 352° North 395 455 28,600 1,131 Climbing Boston Center
Wed 07:11:24 PM 42.1853 -73.2050 353° North 400 460 29,700 934 Climbing Boston Center
Wed 07:12:25 PM 42.3039 -73.2261 353° North 412 474 30,500 814 Climbing Boston Center
Wed 07:13:22 PM 42.4036 -73.2892 335° Northwest 400 460 31,300 814 Climbing Boston Center
Wed 07:14:23 PM 42.4653 -73.3942 309° West 384 442 32,100 942 Climbing Boston Center
Wed 07:15:23 PM 42.5372 -73.5022 312° West 390 449 33,200 843 Climbing Boston Center
Wed 07:16:24 PM 42.6092 -73.6081 313° West 390 449 33,800 403 Climbing Boston Center
Wed 07:17:22 PM 42.6808 -73.7139 313° West 390 449 34,000 101 Climbing Boston Center
Wed 07:18:23 PM 42.7483 -73.8197 311° West 385 443 34,000 -50 Level Boston Center
Wed 07:19:23 PM 42.8222 -73.9261 313° West 385 443 33,900  Descending Boston Center
Wed 07:20:22 PM 42.8936 -74.0328 312° West 385 443 34,000  Climbing Boston Center
Wed 07:21:23 PM 42.9439 -74.1533 300° West 379 436 33,900  Descending Boston Center
Wed 07:22:22 PM 42.9628 -74.2872 281° West 361 415 34,000 50 Climbing Boston Center
Wed 07:23:22 PM 42.9772 -74.4239 278° West 356 410 34,000  Level Boston Center
Wed 07:24:23 PM 42.9936 -74.5550 280° West 362 417 34,000  Level Boston Center
Wed 07:25:23 PM 43.0097 -74.6889 279° West 362 417 34,000  Level Boston Center
Wed 07:26:22 PM 43.0236 -74.8231 278° West 362 417 34,000  Level Boston Center
Wed 07:27:22 PM 43.0372 -74.9628 278° West 362 417 34,000  Level Boston Center
Wed 07:28:23 PM 43.0508 -75.1025 278° West 373 429 34,000  Level Boston Center
Wed 07:29:24 PM 43.0642 -75.2422 277° West 373 429 34,000  Level Boston Center
Wed 07:30:22 PM 43.0792 -75.3936 278° West 373 429 34,000  Level Boston Center
Wed 07:31:23 PM 43.0919 -75.5336 277° West 373 429 34,000  Level Boston Center
Wed 07:32:24 PM 43.1069 -75.6681 279° West 373 429 34,000  Level Boston Center
Wed 07:33:24 PM 43.1219 -75.8056 279° West 373 429 34,000  Level Boston Center
Wed 07:34:22 PM 43.1344 -75.9428 277° West 373 429 34,000  Level Boston Center
Wed 07:35:24 PM 43.1469 -76.0744 277° West 373 429 34,000  Level Boston Center
Wed 07:36:57 PM 43.1517 -76.2914 272° West 362 417 34,000  Level Cleveland Center
Wed 07:37:57 PM 43.1422 -76.4314 265° West 368 423 34,000  Level Cleveland Center
Wed 07:38:57 PM 43.1283 -76.5661 262° West 368 423 34,000  Level Cleveland Center
Wed 07:39:57 PM 43.1197 -76.6778 264° West 368 423 34,000  Level Cleveland Center
Wed 07:40:57 PM 43.1042 -76.8381 262° West 368 423 34,000  Level Cleveland Center
Wed 07:41:57 PM 43.0933 -76.9639 263° West 368 423 34,000  Level Cleveland Center
Wed 07:42:57 PM 43.0831 -77.1008 264° West 368 423 34,000  Level Cleveland Center
Wed 07:43:57 PM 43.0706 -77.2408 263° West 368 423 34,000  Level Cleveland Center
Wed 07:44:57 PM 43.0578 -77.3836 263° West 368 423 34,000  Level Cleveland Center
Wed 07:45:57 PM 43.0450 -77.5264 263° West 373 429 34,000  Level Cleveland Center
Wed 07:46:57 PM 43.0319 -77.6661 263° West 373 429 34,000  Level Cleveland Center
Wed 07:47:57 PM 43.0189 -77.8058 263° West 373 429 34,000  Level Cleveland Center
Wed 07:48:57 PM 43.0053 -77.9458 262° West 373 429 34,000  Level Cleveland Center
Wed 07:49:57 PM 42.9897 -78.0856 261° West 373 429 34,000  Level Cleveland Center
Wed 07:50:57 PM 42.9739 -78.2253 261° West 373 429 34,000  Level Cleveland Center
Wed 07:51:57 PM 42.9600 -78.3647 262° West 373 429 34,000  Level Cleveland Center
Wed 07:52:57 PM 42.9458 -78.4986 262° West 373 429 34,000  Level Cleveland Center
Wed 07:53:57 PM 42.9314 -78.6353 262° West 373 429 34,000  Level Cleveland Center
Wed 07:54:57 PM 42.9192 -78.7772 263° West 373 429 34,000  Level Cleveland Center
Wed 07:55:57 PM 42.9067 -78.9136 263° West 373 429 34,000  Level Cleveland Center
Wed 07:56:57 PM 42.8939 -79.0500 263° West 373 429 34,000  Level Cleveland Center
Wed 07:57:57 PM 42.8686 -79.1839 256° West 373 429 34,000  Level Cleveland Center
Wed 07:58:57 PM 42.8178 -79.3039 240° Southwest 373 429 34,000  Level Cleveland Center
Wed 07:59:57 PM 42.7650 -79.4294 240° Southwest 373 429 34,000  Level Cleveland Center
Wed 08:00:57 PM 42.7308 -79.5628 251° West 379 436 34,000 -300 Level Cleveland Center
Wed 08:01:57 PM 42.7278 -79.7069 268° West 379 436 33,400 -1,100 Descending Cleveland Center
Wed 08:02:57 PM 42.7247 -79.8511 268° West 379 436 31,800 -1,450 Descending Cleveland Center
Wed 08:03:57 PM 42.7214 -80.0153 268° West 389 448 30,500 -1,200 Descending Cleveland Center
Wed 08:04:57 PM 42.7200 -80.1564 269° West 391 450 29,400 -1,250 Descending Cleveland Center
Wed 08:05:57 PM 42.7161 -80.2978 268° West 384 442 28,000 -700 Descending Cleveland Center
Wed 08:06:57 PM 42.7144 -80.4475 269° West 390 449 28,000  Level Cleveland Center
Wed 08:07:57 PM 42.7144 -80.5944 270° West 390 449 28,000 -550 Level Cleveland Center
Wed 08:08:57 PM 42.7081 -80.7386 267° West 390 449 26,900 -1,350 Descending Cleveland Center
Wed 08:09:57 PM 42.7078 -80.8769 270° West 374 430 25,300 -1,750 Descending Cleveland Center
Wed 08:10:57 PM 42.6928 -81.0097 261° West 363 418 23,400 -1,150 Descending Cleveland Center
Wed 08:11:57 PM 42.6819 -81.1311 263° West 363 418 23,000 -200 Descending Cleveland Center
Wed 08:12:57 PM 42.6644 -81.2636 260° West 358 412 23,000  Level Cleveland Center
Wed 08:13:57 PM 42.6492 -81.3906 261° West 348 400 23,000  Level Cleveland Center
Wed 08:14:57 PM 42.6356 -81.5231 262° West 353 406 23,000  Level Cleveland Center
Wed 08:15:57 PM 42.6178 -81.6525 259° West 353 406 23,000 -600 Level Cleveland Center
Wed 08:16:57 PM 42.6042 -81.7792 262° West 348 400 21,800 -1,350 Descending Cleveland Center
Wed 08:17:57 PM 42.5858 -81.9200 260° West 348 400 20,300 -1,700 Descending Cleveland Center
Wed 08:18:57 PM 42.5675 -82.0464 259° West 348 400 18,400 -1,700 Descending Cleveland Center
Wed 08:19:57 PM 42.5536 -82.1644 261° West 348 400 16,900 -1,795 Descending Cleveland Center
Wed 08:20:54 PM 42.5417 -82.2739 262° West 295 339 14,900 -2,264 Descending Cleveland Center
Wed 08:21:43 PM 42.5317 -82.3694 262° West 299 344 12,900 -1,689 Descending Cleveland Center
Wed 08:22:37 PM 42.5178 -82.4706 259° West 302 348 12,000 -730 Descending Cleveland Center
Wed 08:22:57 PM 42.5131 -82.5014 258° West 305 351 12,000  Level Cleveland Center
Wed 08:23:38 PM 42.4969 -82.5797 254° West 305 351 12,000  Level Cleveland Center
Wed 08:23:57 PM 42.4881 -82.6106 249° West 305 351 12,000  Level Cleveland Center
Wed 08:24:39 PM 42.4617 -82.6856 245° Southwest 303 349 12,000 -100 Level Cleveland Center
Wed 08:24:57 PM 42.4508 -82.7106 240° Southwest 305 351 11,900  Descending Cleveland Center
Wed 08:25:40 PM 42.4289 -82.7744 245° Southwest 248 285 12,000 100 Climbing Cleveland Center
Wed 08:25:57 PM 42.4200 -82.7967 242° Southwest 286 329 12,000  Level Cleveland Center
Wed 08:26:41 PM 42.3981 -82.8606 245° Southwest 238 274 12,000 -300 Level Cleveland Center
Wed 08:26:57 PM 42.3894 -82.8744 230° Southwest 257 296 11,700 -984 Descending Cleveland Center
Wed 08:27:42 PM 42.3717 -82.9328 248° West 224 258 11,000 -700 Descending Cleveland Center
Wed 08:27:57 PM 42.3628 -82.9522 238° Southwest 242 278 11,000  Level Cleveland Center
Wed 08:28:49 PM 42.3386 -83.0158 243° Southwest 204 235 11,000  Level Cleveland Center
Wed 08:29:50 PM 42.3244 -83.0883 255° West 203 234 11,000  Level Cleveland Center
Wed 08:30:32 PM 42.3150 -83.1369 255° West 204 235 11,000  Level FAA TRACON
Wed 08:30:52 PM 42.2997 -83.1586 226° Southwest 212 244 11,000  Level FAA TRACON
Wed 08:31:11 PM 42.2833 -83.1722 212° Southwest 221 254 11,000  Level FAA TRACON
Wed 08:31:32 PM 42.2672 -83.1856 211° Southwest 221 254 11,000  Level FAA TRACON
Wed 08:31:51 PM 42.2511 -83.1986 211° Southwest 219 252 11,000 -450 Level FAA TRACON
Wed 08:32:12 PM 42.2311 -83.2147 211° Southwest 214 246 10,700 -1,317 Descending FAA TRACON
Wed 08:32:32 PM 42.2144 -83.2256 206° Southwest 214 246 10,100 -1,950 Descending FAA TRACON
Wed 08:32:52 PM 42.1928 -83.2397 206° Southwest 222 255 9,400 -1,950 Descending FAA TRACON
Wed 08:33:12 PM 42.1758 -83.2514 207° Southwest 223 257 8,800 -1,692 Descending FAA TRACON
Wed 08:33:31 PM 42.1589 -83.2636 208° Southwest 221 254 8,300 -1,800 Descending FAA TRACON
Wed 08:33:52 PM 42.1422 -83.2756 208° Southwest 217 250 7,600 -2,400 Descending FAA TRACON
Wed 08:34:11 PM 42.1219 -83.2906 209° Southwest 217 250 6,700 -2,250 Descending FAA TRACON
Wed 08:34:32 PM 42.1056 -83.3033 210° Southwest 219 252 6,100 -1,902 Descending FAA TRACON
Wed 08:34:52 PM 42.0892 -83.3161 210° Southwest 220 253 5,400 -2,154 Descending FAA TRACON
Wed 08:35:11 PM 42.0728 -83.3294 211° Southwest 221 254 4,700 -2,100 Descending FAA TRACON
Wed 08:35:32 PM 42.0531 -83.3467 213° Southwest 220 253 4,000 -1,050 Descending FAA TRACON
Wed 08:35:51 PM 42.0369 -83.3578 207° Southwest 208 239 4,000  Level FAA TRACON
Wed 08:36:12 PM 42.0172 -83.3697 204° Southwest 202 232 4,000  Level FAA TRACON
Wed 08:36:32 PM 42.0014 -83.3794 205° Southwest 202 232 4,000  Level FAA TRACON
Wed 08:36:52 PM 41.9856 -83.3883 203° Southwest 201 231 4,000  Level FAA TRACON
Wed 08:37:11 PM 41.9697 -83.3975 203° Southwest 200 230 4,000 -150 Level FAA TRACON
Wed 08:37:32 PM 41.9519 -83.4131 213° Southwest 190 219 3,900  Descending FAA TRACON
Wed 08:37:52 PM 41.9486 -83.4336 258° West 185 213 4,000 150 Climbing FAA TRACON
Wed 08:38:12 PM 41.9464 -83.4586 263° West 179 206 4,000  Level FAA TRACON
Wed 08:38:32 PM 41.9450 -83.4778 264° West 176 203 4,000 -154 Level FAA TRACON
Wed 08:38:51 PM 41.9461 -83.5014 274° West 177 204 3,900  Descending FAA TRACON
Wed 08:39:12 PM 41.9603 -83.5133 328° Northwest 186 214 4,000 286 Climbing FAA TRACON

Login

Don't have an account? Register now (free) for customized features, flight alerts, and more!